LYTVLYBE

Guest
Details From LYTV - Tivat
To LYBE - Belgrade
Flight Number -
Tags decoded
Created
Modified
Stats Distance 198 nm / 367 km
Max Altitude 0 ft / 0 m
Waypoints 5
Social Downloads 2
Likes 0
Share VATSIM

Download

Looking for another format? Having issues loading an existing format? Contact us
Advertisement - Login to hide

Notes

Requested: LYTV NIK KRV VAL LYBE

Route

LYTV NIK KRV VAL LYBE

ID Type Via Altitude Latitude Longitude Leg Dist Tot Dist Heading (true) Name
O LYTV APT - 0 ft / 0 m 42.40466˚ 18.72329˚ - 0 nm - Tivat
NIK NDB - 0 ft / 0 m 42.77639˚ 18.92417˚ 24 nm 24 nm 22° / 22° NIKSIC NDB
KRV VOR - 0 ft / 0 m 43.82122˚ 20.58444˚ 95 nm 119 nm 49° / 50° KRALJEVO VOR-DME
VAL NDB - 0 ft / 0 m 44.32119˚ 19.87506˚ 42 nm 162 nm 315° / 314° VALJEVO NDB
O LYBE APT - 0 ft / 0 m 44.81843˚ 20.30921˚ 35 nm 198 nm 32° / 32° Belgrade

Altitude Profile

Advertisement - Login to hide

Weather


0- 5 10 15 20 25 30 35+ Temperature / ° C

Clouds and Precipitation
Forecast for 2018-05-27 00:00 UTC. Updated 3 hours ago

Ground ~20,000 ft ~40,000 ft Winds

LYTV

Details ICAO LYTV (TIV)
Name Tivat
Region Serbia and Montenegro
Timezone Europe/Podgorica (UTC+2.0)
Stats Elevation 20 ft / 6 m (AMSL)
Location 42.404657° 18.723295°
Runways 1
Magnetic Variation 4.209° E

METAR

LYTV 270200Z VRB01KT CAVOK 16/14 Q1016

Decode

TAF

TAF LYTV 262300Z 2700/2724 36005KT CAVOK TX31/2713Z TN14/2703Z PROB40 TEMPO 2712/2717 TS FEW027CB SCT040

Decode

Departure Runways

ID Width Length Bearing (true) Bearing (mag) Surface Threshold Offset Overrun Length
14 148 ft / 45 m 8,206 ft / 2,501 m 139.03° 134.82° Asphalt 300 ft / 91 m 0 ft / 0 m
32 148 ft / 45 m 8,206 ft / 2,501 m 319.04° 314.83° Asphalt 300 ft / 91 m 0 ft / 0 m

LYBE

Details ICAO LYBE (BEG)
Name Belgrade
Region Serbia and Montenegro
Timezone Europe/Belgrade (UTC+2.0)
Stats Elevation 335 ft / 102 m (AMSL)
Location 44.818429° 20.309211°
Runways 1
Magnetic Variation 4.720° E

METAR

LYBE 270200Z 29005KT 260V320 CAVOK 16/15 Q1020 NOSIG

Decode

TAF

TAF LYBE 262300Z 2700/2724 06008KT CAVOK TX29/2713Z TN15/2703Z PROB30 TEMPO 2713/2715 5000 TSRA SCT030CB SCT040

Decode

Destination Runways

ID Width Length Bearing (true) Bearing (mag) Surface Threshold Offset Overrun Length
12 148 ft / 45 m 11,138 ft / 3,395 m 122.00° 117.28° Asphalt 1,000 ft / 305 m 0 ft / 0 m
30 148 ft / 45 m 11,138 ft / 3,395 m 302.03° 297.31° Asphalt 1,312 ft / 400 m 0 ft / 0 m

Approach Navaids

Runway Type Ident Frequency Range Bearing (true) Bearing (mag) Slope Elevation
12 Localiser YUB 110.30 MHz 25 nm / 46 km 121.92° 117.20° - 315 ft / 96 m (AMSL)
12 Glidescope YUB 110.30 MHz 25 nm / 46 km 121.92° 117.20° 3.00° 305 ft / 93 m (AMSL)
30 Localiser YBE 109.90 MHz 25 nm / 46 km 301.94° 297.22° - 298 ft / 91 m (AMSL)
30 Glidescope YBE 109.90 MHz 25 nm / 46 km 301.94° 297.22° 3.00° 328 ft / 100 m (AMSL)

Popular Alternatives